createdAt,value
2019-02-15T00:00:08.991Z,3.20
2019-02-15T00:02:35.724Z,3.20
2019-02-15T00:05:02.474Z,3.10
2019-02-15T00:07:29.615Z,3.10
2019-02-15T00:09:56.562Z,3.10
2019-02-15T00:12:23.911Z,3.10
2019-02-15T00:14:51.574Z,3.10
2019-02-15T00:17:19.747Z,3.10
2019-02-15T00:19:47.411Z,3.10
2019-02-15T00:22:14.117Z,3.10
2019-02-15T00:24:41.575Z,3.20
2019-02-15T00:27:08.248Z,3.10
2019-02-15T00:29:34.987Z,3.20
2019-02-15T00:32:01.935Z,3.10
2019-02-15T00:34:28.776Z,3.10
2019-02-15T00:36:55.446Z,3.10
2019-02-15T00:39:22.974Z,3.10
2019-02-15T00:41:49.639Z,3.10
2019-02-15T00:44:17.381Z,3.10
2019-02-15T00:46:44.902Z,3.10
2019-02-15T00:49:11.671Z,3.10
2019-02-15T00:51:42.514Z,2.90
2019-02-15T00:54:10.889Z,2.90
2019-02-15T00:56:48.382Z,2.90
2019-02-15T00:59:31.611Z,3.00
2019-02-15T01:01:59.377Z,2.90
2019-02-15T01:04:30.099Z,3.00
2019-02-15T01:07:13.339Z,3.00
2019-02-15T01:09:44.176Z,2.90
2019-02-15T01:12:12.041Z,3.00
2019-02-15T01:14:38.880Z,3.00
2019-02-15T01:17:05.604Z,2.90
2019-02-15T01:19:33.388Z,2.90
2019-02-15T01:22:00.947Z,2.90
2019-02-15T01:24:27.686Z,2.90
2019-02-15T01:26:55.246Z,2.90
2019-02-15T01:29:28.336Z,2.90
2019-02-15T01:31:58.152Z,2.80
2019-02-15T01:34:36.868Z,2.80
2019-02-15T01:37:06.181Z,2.70
2019-02-15T01:39:33.118Z,2.70
2019-02-15T01:42:05.968Z,2.70
2019-02-15T01:44:33.763Z,2.70
2019-02-15T01:47:01.245Z,2.80
2019-02-15T01:49:28.037Z,2.70
2019-02-15T01:51:54.701Z,2.80
2019-02-15T01:54:22.146Z,2.70
2019-02-15T01:56:49.823Z,2.80
2019-02-15T01:59:16.594Z,2.70
2019-02-15T02:01:43.359Z,2.70
2019-02-15T02:04:10.147Z,2.80
2019-02-15T02:06:37.705Z,2.70
2019-02-15T02:09:04.470Z,2.70
2019-02-15T02:11:31.322Z,2.80
2019-02-15T02:13:57.991Z,2.70
2019-02-15T02:16:25.471Z,2.70
2019-02-15T02:18:52.948Z,2.70
2019-02-15T02:21:19.700Z,2.70
2019-02-15T02:23:46.592Z,2.70
2019-02-15T02:26:13.477Z,2.80
2019-02-15T02:28:40.211Z,2.70
2019-02-15T02:31:07.060Z,2.80
2019-02-15T02:33:34.004Z,2.80
2019-02-15T02:36:01.047Z,2.80
2019-02-15T02:38:27.787Z,2.70
2019-02-15T02:40:55.190Z,2.70
2019-02-15T02:43:21.986Z,2.70
2019-02-15T02:45:48.830Z,2.60
2019-02-15T02:48:15.570Z,2.50
2019-02-15T02:50:43.002Z,2.50
2019-02-15T02:53:09.641Z,2.50
2019-02-15T02:55:37.099Z,2.50
2019-02-15T02:58:04.682Z,2.50
2019-02-15T03:00:33.739Z,2.40
2019-02-15T03:02:59.701Z,2.40
2019-02-15T03:05:26.400Z,2.40
2019-02-15T03:07:53.286Z,2.40
2019-02-15T03:10:20.074Z,2.40
2019-02-15T03:12:46.798Z,2.30
2019-02-15T03:15:13.496Z,2.30
2019-02-15T03:17:41.065Z,2.30
2019-02-15T03:20:07.792Z,2.30
2019-02-15T03:22:35.264Z,2.40
2019-02-15T03:25:02.113Z,2.30
2019-02-15T03:27:28.780Z,2.30
2019-02-15T03:29:55.482Z,2.30
2019-02-15T03:32:22.932Z,2.30
2019-02-15T03:34:49.670Z,2.30
2019-02-15T03:37:20.212Z,2.30
2019-02-15T03:39:48.593Z,2.30
2019-02-15T03:42:15.377Z,2.20
2019-02-15T03:44:42.281Z,2.20
2019-02-15T03:47:09.117Z,2.20
2019-02-15T03:49:36.064Z,2.20
2019-02-15T03:52:03.522Z,2.30
2019-02-15T03:54:30.467Z,2.20
2019-02-15T03:56:58.031Z,2.20
2019-02-15T03:59:24.721Z,2.20
2019-02-15T04:01:51.614Z,2.20
2019-02-15T04:04:18.454Z,2.20
2019-02-15T04:06:45.190Z,2.20
2019-02-15T04:09:11.935Z,2.20
2019-02-15T04:11:38.645Z,2.20
2019-02-15T04:14:06.239Z,2.20
2019-02-15T04:16:33.078Z,2.20
2019-02-15T04:18:59.816Z,2.30
2019-02-15T04:21:26.558Z,2.30
2019-02-15T04:23:53.296Z,2.30
2019-02-15T04:26:20.035Z,2.20
2019-02-15T04:28:47.479Z,2.20
2019-02-15T04:31:14.888Z,2.20
2019-02-15T04:33:41.570Z,2.20
2019-02-15T04:36:08.367Z,2.20
2019-02-15T04:38:35.277Z,2.20
2019-02-15T04:41:02.062Z,2.20
2019-02-15T04:43:28.729Z,2.30
2019-02-15T04:45:56.148Z,2.30
2019-02-15T04:48:23.630Z,2.20
2019-02-15T04:50:50.411Z,2.20
2019-02-15T04:53:17.151Z,2.20
2019-02-15T04:55:43.997Z,2.20
2019-02-15T04:58:10.738Z,2.10
2019-02-15T05:00:37.480Z,2.20
2019-02-15T05:03:04.214Z,2.30
2019-02-15T05:05:31.622Z,2.20
2019-02-15T05:07:58.329Z,2.20
2019-02-15T05:10:25.052Z,2.30
2019-02-15T05:12:52.448Z,2.30
2019-02-15T05:15:19.153Z,2.20
2019-02-15T05:17:45.994Z,2.30
2019-02-15T05:20:12.729Z,2.30
2019-02-15T05:22:39.471Z,2.30
2019-02-15T05:25:06.211Z,2.30
2019-02-15T05:27:33.732Z,2.40
2019-02-15T05:30:00.615Z,2.40
2019-02-15T05:32:27.455Z,2.30
2019-02-15T05:34:54.300Z,2.30
2019-02-15T05:37:24.742Z,2.30
2019-02-15T05:39:51.680Z,2.20
2019-02-15T05:42:18.554Z,2.20
2019-02-15T05:44:45.258Z,2.20
2019-02-15T05:47:12.101Z,2.20
2019-02-15T05:49:38.853Z,2.20
2019-02-15T05:52:05.580Z,2.20
2019-02-15T05:54:33.035Z,2.10
2019-02-15T05:57:00.495Z,2.20
2019-02-15T05:59:27.952Z,2.10
2019-02-15T06:01:54.900Z,2.10
2019-02-15T06:04:22.149Z,2.10
2019-02-15T06:06:49.298Z,2.10
2019-02-15T06:09:16.345Z,2.20
2019-02-15T06:11:43.186Z,2.20
2019-02-15T06:14:10.012Z,2.20
2019-02-15T06:16:37.490Z,2.30
2019-02-15T06:19:04.954Z,2.30
2019-02-15T06:21:31.801Z,2.20
2019-02-15T06:23:58.944Z,2.30
2019-02-15T06:26:25.657Z,2.30
2019-02-15T06:28:53.136Z,2.40
2019-02-15T06:31:20.085Z,2.40
2019-02-15T06:33:46.929Z,2.40
2019-02-15T06:36:13.664Z,2.30
2019-02-15T06:38:41.120Z,2.30
2019-02-15T06:41:08.579Z,2.40
2019-02-15T06:43:36.137Z,2.40
2019-02-15T06:46:03.600Z,2.40
2019-02-15T06:48:30.342Z,2.40
2019-02-15T06:50:58.020Z,2.40
2019-02-15T06:53:25.253Z,2.40
2019-02-15T06:55:51.995Z,2.50
2019-02-15T06:58:18.939Z,2.60
2019-02-15T07:00:51.720Z,2.60
2019-02-15T07:03:18.471Z,2.60
2019-02-15T07:05:45.406Z,2.60
2019-02-15T07:08:12.145Z,2.70
2019-02-15T07:10:38.990Z,2.70
2019-02-15T07:13:05.728Z,2.80
2019-02-15T07:15:33.970Z,2.80
2019-02-15T07:18:00.234Z,2.80
2019-02-15T07:20:27.693Z,2.90
2019-02-15T07:22:54.538Z,2.80
2019-02-15T07:25:21.275Z,2.90
2019-02-15T07:27:48.019Z,3.00
2019-02-15T07:30:15.660Z,3.00
2019-02-15T07:32:42.422Z,3.10
2019-02-15T07:35:09.159Z,3.10
2019-02-15T07:37:35.899Z,3.20
2019-02-15T07:40:02.847Z,3.20
2019-02-15T07:42:30.407Z,3.20
2019-02-15T07:44:57.249Z,3.20
2019-02-15T07:47:23.988Z,3.30
2019-02-15T07:49:50.777Z,3.30
2019-02-15T07:52:19.104Z,3.40
2019-02-15T07:54:46.872Z,3.40
2019-02-15T07:57:13.615Z,3.40
2019-02-15T07:59:40.358Z,3.50
2019-02-15T08:02:07.193Z,3.50
2019-02-15T08:04:34.042Z,3.50
2019-02-15T08:07:00.777Z,3.60
2019-02-15T08:09:28.335Z,3.70
2019-02-15T08:11:55.077Z,3.70
2019-02-15T08:14:21.817Z,3.70
2019-02-15T08:16:48.561Z,3.60
2019-02-15T08:19:15.300Z,3.70
2019-02-15T08:21:42.144Z,3.70
2019-02-15T08:24:08.881Z,3.70
2019-02-15T08:26:35.624Z,3.80
2019-02-15T08:29:03.184Z,3.90
2019-02-15T08:31:30.024Z,3.90
2019-02-15T08:33:56.870Z,4.00
2019-02-15T08:36:23.723Z,4.00
2019-02-15T08:38:50.453Z,4.10
2019-02-15T08:41:17.906Z,4.20
2019-02-15T08:43:44.759Z,4.10
2019-02-15T08:46:19.676Z,4.10
2019-02-15T08:48:48.375Z,4.30
2019-02-15T08:51:15.113Z,4.30
2019-02-15T08:53:42.060Z,4.30
2019-02-15T08:56:09.720Z,4.40
2019-02-15T08:58:36.561Z,4.40
2019-02-15T09:01:03.302Z,4.40
2019-02-15T09:03:30.044Z,4.40
2019-02-15T09:05:56.783Z,4.40
2019-02-15T09:08:24.346Z,4.50
2019-02-15T09:10:51.009Z,4.50
2019-02-15T09:13:17.723Z,4.50
2019-02-15T09:15:45.280Z,4.60
2019-02-15T09:18:12.126Z,4.60
2019-02-15T09:20:39.685Z,4.80
2019-02-15T09:23:07.242Z,4.80
2019-02-15T09:25:34.700Z,4.90
2019-02-15T09:28:07.793Z,4.80
2019-02-15T09:30:34.528Z,4.80
2019-02-15T09:33:01.908Z,4.90
2019-02-15T09:35:28.725Z,4.90
2019-02-15T09:37:56.287Z,4.90
2019-02-15T09:40:23.135Z,4.90
2019-02-15T09:42:50.077Z,5.00
2019-02-15T09:45:17.737Z,5.10
2019-02-15T09:47:45.301Z,5.00
2019-02-15T09:50:12.480Z,5.00
2019-02-15T09:52:39.803Z,5.30
2019-02-15T09:55:06.645Z,5.20
2019-02-15T09:57:33.386Z,5.30
2019-02-15T10:00:00.280Z,5.50
2019-02-15T10:02:27.787Z,5.50
2019-02-15T10:04:54.701Z,5.50
2019-02-15T10:07:21.351Z,5.50
2019-02-15T10:09:49.098Z,5.60
2019-02-15T10:12:15.762Z,5.60
2019-02-15T10:14:43.231Z,5.80
2019-02-15T10:17:10.687Z,5.80
2019-02-15T10:19:37.426Z,5.70
2019-02-15T10:22:04.898Z,5.80
2019-02-15T10:24:31.625Z,5.80
2019-02-15T10:26:58.365Z,5.90
2019-02-15T10:29:25.827Z,5.90
2019-02-15T10:31:53.384Z,6.00
2019-02-15T10:34:20.849Z,6.10
2019-02-15T10:36:47.580Z,6.10
2019-02-15T10:39:15.142Z,6.20
2019-02-15T10:41:42.598Z,6.20
2019-02-15T10:44:09.441Z,6.20
2019-02-15T10:46:37.862Z,6.30
2019-02-15T10:49:03.948Z,6.20
2019-02-15T10:51:31.403Z,6.30
2019-02-15T10:54:00.089Z,6.20
2019-02-15T10:56:25.295Z,6.20
2019-02-15T10:58:52.042Z,6.20
2019-02-15T11:01:18.878Z,6.10
2019-02-15T11:03:45.722Z,6.10
2019-02-15T11:06:12.569Z,6.10
2019-02-15T11:08:39.215Z,6.00
2019-02-15T11:11:05.945Z,6.00
2019-02-15T11:13:32.681Z,6.00
2019-02-15T11:15:59.423Z,6.10
2019-02-15T11:18:26.270Z,6.10
2019-02-15T11:20:53.009Z,6.20
2019-02-15T11:23:19.869Z,6.20
2019-02-15T11:25:46.719Z,6.20
2019-02-15T11:28:13.432Z,6.20
2019-02-15T11:30:40.891Z,6.10
2019-02-15T11:33:07.631Z,6.10
2019-02-15T11:35:34.473Z,6.30
2019-02-15T11:38:01.213Z,6.30
2019-02-15T11:40:28.056Z,6.20
2019-02-15T11:42:54.794Z,6.20
2019-02-15T11:45:21.536Z,6.30
2019-02-15T11:47:49.099Z,6.30
2019-02-15T11:50:16.719Z,6.40
2019-02-15T11:52:43.401Z,6.40
2019-02-15T11:55:10.137Z,6.40
2019-02-15T11:57:36.982Z,6.40
2019-02-15T12:00:13.662Z,6.40
2019-02-15T12:02:31.484Z,6.40
2019-02-15T12:04:58.224Z,6.30
2019-02-15T12:07:25.790Z,6.20
2019-02-15T12:09:52.528Z,6.20
2019-02-15T12:12:19.366Z,6.30
2019-02-15T12:14:47.031Z,6.30
2019-02-15T12:17:13.770Z,6.30
2019-02-15T12:19:40.514Z,6.30
2019-02-15T12:22:07.560Z,6.20
2019-02-15T12:24:34.301Z,6.20
2019-02-15T12:27:00.967Z,6.20
2019-02-15T12:29:27.881Z,6.20
2019-02-15T12:31:54.622Z,6.10
2019-02-15T12:34:22.079Z,6.10
2019-02-15T12:36:48.925Z,6.00
2019-02-15T12:39:15.765Z,6.10
2019-02-15T12:41:43.327Z,6.20
2019-02-15T12:44:10.065Z,6.20
2019-02-15T12:46:37.526Z,6.20
2019-02-15T12:49:04.366Z,6.10
2019-02-15T12:51:31.108Z,6.20
2019-02-15T12:53:58.564Z,6.10
2019-02-15T12:56:26.127Z,6.20
2019-02-15T12:58:52.865Z,6.20
2019-02-15T13:01:19.603Z,6.20
2019-02-15T13:03:47.164Z,6.20
2019-02-15T13:06:14.726Z,6.10
2019-02-15T13:08:41.463Z,6.10
2019-02-15T13:11:08.203Z,6.20
2019-02-15T13:13:35.765Z,6.30
2019-02-15T13:16:03.328Z,6.30
2019-02-15T13:18:30.065Z,6.30
2019-02-15T13:20:56.805Z,6.30
2019-02-15T13:23:23.753Z,6.20
2019-02-15T13:25:50.594Z,6.20
2019-02-15T13:28:18.155Z,6.20
2019-02-15T13:30:44.893Z,6.10
2019-02-15T13:33:11.743Z,6.10
2019-02-15T13:35:38.583Z,6.00
2019-02-15T13:38:05.320Z,6.00
2019-02-15T13:40:32.060Z,5.90
2019-02-15T13:42:58.903Z,5.80
2019-02-15T13:45:26.466Z,5.90
2019-02-15T13:47:53.209Z,5.90
2019-02-15T13:50:19.945Z,5.80
2019-02-15T13:52:46.681Z,5.70
2019-02-15T13:55:13.439Z,5.60
2019-02-15T13:57:40.269Z,5.60
2019-02-15T14:00:10.532Z,5.70
2019-02-15T14:02:37.170Z,5.60
2019-02-15T14:05:03.958Z,5.60
2019-02-15T14:07:31.428Z,5.50
2019-02-15T14:09:58.886Z,5.50
2019-02-15T14:12:25.733Z,5.40
2019-02-15T14:14:52.469Z,5.40
2019-02-15T14:17:19.215Z,5.30
2019-02-15T14:19:45.948Z,5.30
2019-02-15T14:22:12.809Z,5.20
2019-02-15T14:24:39.634Z,5.30
2019-02-15T14:27:07.196Z,5.30
2019-02-15T14:29:33.937Z,5.30
2019-02-15T14:32:00.777Z,5.10
2019-02-15T14:34:28.441Z,5.10
2019-02-15T14:36:56.001Z,5.10
2019-02-15T14:39:22.842Z,5.00
2019-02-15T14:41:50.299Z,4.90
2019-02-15T14:44:17.865Z,4.80
2019-02-15T14:46:44.707Z,4.80
2019-02-15T14:49:11.441Z,4.70
2019-02-15T14:51:38.288Z,4.60
2019-02-15T14:54:05.745Z,4.60
2019-02-15T14:56:32.489Z,4.60
2019-02-15T14:58:59.325Z,4.60
2019-02-15T15:01:26.175Z,4.50
2019-02-15T15:03:52.909Z,4.40
2019-02-15T15:06:19.750Z,4.30
2019-02-15T15:08:47.317Z,4.30
2019-02-15T15:11:14.054Z,4.20
2019-02-15T15:13:41.021Z,4.20
2019-02-15T15:16:07.737Z,4.10
2019-02-15T15:18:34.454Z,4.10
2019-02-15T15:21:02.040Z,4.00
2019-02-15T15:23:28.778Z,4.00
2019-02-15T15:25:56.342Z,3.90
2019-02-15T15:28:23.199Z,3.90
2019-02-15T15:30:50.127Z,3.90
2019-02-15T15:33:17.073Z,4.00
2019-02-15T15:35:44.018Z,3.90
2019-02-15T15:38:11.643Z,3.70
2019-02-15T15:40:38.421Z,3.70
2019-02-15T15:43:05.367Z,3.60
2019-02-15T15:45:32.826Z,3.70
2019-02-15T15:47:59.667Z,3.70
2019-02-15T15:50:26.509Z,3.70
2019-02-15T15:52:53.964Z,3.60
2019-02-15T15:55:21.427Z,3.60
2019-02-15T15:57:48.983Z,3.60
2019-02-15T16:00:16.622Z,3.50
2019-02-15T16:02:43.600Z,3.50
2019-02-15T16:05:10.646Z,3.50
2019-02-15T16:07:37.786Z,3.30
2019-02-15T16:10:06.544Z,3.40
2019-02-15T16:12:34.853Z,3.40
2019-02-15T16:15:02.718Z,3.40
2019-02-15T16:17:29.462Z,3.30
2019-02-15T16:19:56.306Z,3.40
2019-02-15T16:22:23.149Z,3.30
2019-02-15T16:24:50.397Z,3.40
2019-02-15T16:27:18.272Z,3.30
2019-02-15T16:29:45.313Z,3.30
2019-02-15T16:32:13.081Z,3.20
2019-02-15T16:34:39.922Z,3.20
2019-02-15T16:37:06.868Z,3.20
2019-02-15T16:39:33.709Z,3.20
2019-02-15T16:42:01.373Z,3.20
2019-02-15T16:44:28.317Z,3.10
2019-02-15T16:46:56.082Z,3.10
2019-02-15T16:49:23.242Z,3.10
2019-02-15T16:51:50.177Z,3.00
2019-02-15T16:54:18.771Z,3.00
2019-02-15T16:56:45.707Z,2.90
2019-02-15T16:59:12.669Z,2.90
2019-02-15T17:01:39.706Z,2.90
2019-02-15T17:04:06.950Z,2.90
2019-02-15T17:06:34.204Z,2.80
2019-02-15T17:09:02.082Z,2.70
2019-02-15T17:11:29.121Z,2.80
2019-02-15T17:13:57.090Z,2.70
2019-02-15T17:16:24.235Z,2.70
2019-02-15T17:18:52.249Z,2.70
2019-02-15T17:21:18.738Z,2.70
2019-02-15T17:23:46.538Z,2.70
2019-02-15T17:26:13.658Z,2.70
2019-02-15T17:28:40.669Z,2.70
2019-02-15T17:31:07.691Z,2.80
2019-02-15T17:33:35.088Z,2.70
2019-02-15T17:36:01.956Z,2.80
2019-02-15T17:38:28.904Z,2.70
2019-02-15T17:40:56.286Z,2.70
2019-02-15T17:43:22.976Z,2.70
2019-02-15T17:45:50.475Z,2.60
2019-02-15T17:48:18.057Z,2.60
2019-02-15T17:50:44.776Z,2.60
2019-02-15T17:53:11.546Z,2.60
2019-02-15T17:55:38.533Z,2.60
2019-02-15T17:58:06.167Z,2.60
2019-02-15T18:00:33.688Z,2.60
2019-02-15T18:03:00.472Z,2.60
2019-02-15T18:05:28.583Z,2.60
2019-02-15T18:07:55.006Z,2.50
2019-02-15T18:10:21.945Z,2.50
2019-02-15T18:12:49.440Z,2.50
2019-02-15T18:15:17.069Z,2.50
2019-02-15T18:17:44.129Z,2.50
2019-02-15T18:20:10.854Z,2.40
2019-02-15T18:22:38.830Z,2.40
2019-02-15T18:25:05.653Z,2.40
2019-02-15T18:27:33.637Z,2.50
2019-02-15T18:30:00.687Z,2.40
2019-02-15T18:32:28.962Z,2.50
2019-02-15T18:34:55.907Z,2.50
2019-02-15T18:37:23.058Z,2.50
2019-02-15T18:39:50.004Z,2.40
2019-02-15T18:42:17.057Z,2.50
2019-02-15T18:44:43.894Z,2.50
2019-02-15T18:47:11.609Z,2.50
2019-02-15T18:49:38.512Z,2.40
2019-02-15T18:52:05.447Z,2.40
2019-02-15T18:54:32.259Z,2.40
2019-02-15T18:56:59.805Z,2.40
2019-02-15T18:59:27.194Z,2.40
2019-02-15T19:01:54.002Z,2.40
2019-02-15T19:04:20.941Z,2.40
2019-02-15T19:06:48.653Z,2.30
2019-02-15T19:09:15.604Z,2.30
2019-02-15T19:11:42.954Z,2.30
2019-02-15T19:14:10.143Z,2.30
2019-02-15T19:16:37.266Z,2.30
2019-02-15T19:19:04.401Z,2.20
2019-02-15T19:21:31.413Z,2.30
2019-02-15T19:24:08.713Z,2.20
2019-02-15T19:26:35.833Z,2.20
2019-02-15T19:29:03.173Z,2.20
2019-02-15T19:31:30.757Z,2.20
2019-02-15T19:33:59.861Z,2.10
2019-02-15T19:36:26.815Z,2.20
2019-02-15T19:38:56.831Z,2.20
2019-02-15T19:41:23.858Z,2.10
2019-02-15T19:43:50.946Z,2.20
2019-02-15T19:46:18.682Z,2.20
2019-02-15T19:48:50.510Z,2.30
2019-02-15T19:51:17.536Z,2.20
2019-02-15T19:53:45.483Z,2.20
2019-02-15T19:56:13.627Z,2.10
2019-02-15T19:58:43.698Z,2.10
2019-02-15T20:01:08.160Z,2.00
2019-02-15T20:03:35.643Z,2.00
2019-02-15T20:06:02.351Z,2.00
2019-02-15T20:08:29.105Z,2.00
2019-02-15T20:10:56.829Z,2.10
2019-02-15T20:13:23.776Z,2.10
2019-02-15T20:15:50.681Z,2.10
2019-02-15T20:18:17.558Z,2.10
2019-02-15T20:20:44.452Z,2.10
2019-02-15T20:23:11.350Z,2.00
2019-02-15T20:25:38.079Z,2.00
2019-02-15T20:28:13.740Z,2.00
2019-02-15T20:30:33.242Z,1.90
2019-02-15T20:33:01.030Z,1.90
2019-02-15T20:35:27.922Z,1.90
2019-02-15T20:38:09.977Z,1.80
2019-02-15T20:40:37.536Z,1.90
2019-02-15T20:43:04.205Z,1.90
2019-02-15T20:45:34.216Z,1.90
2019-02-15T20:48:02.703Z,1.90
2019-02-15T20:50:29.601Z,1.90
2019-02-15T20:52:59.087Z,1.90
2019-02-15T20:55:26.582Z,1.90
2019-02-15T20:57:53.768Z,1.90
2019-02-15T21:00:24.771Z,1.90
2019-02-15T21:02:52.617Z,1.90
2019-02-15T21:05:19.502Z,1.90
2019-02-15T21:07:48.843Z,1.90
2019-02-15T21:10:15.635Z,1.90
2019-02-15T21:12:43.668Z,1.90
2019-02-15T21:15:11.863Z,1.90
2019-02-15T21:17:38.885Z,1.90
2019-02-15T21:20:08.110Z,1.90
2019-02-15T21:22:32.496Z,1.90
2019-02-15T21:25:00.852Z,1.90
2019-02-15T21:27:28.321Z,1.90
2019-02-15T21:29:55.681Z,1.80
2019-02-15T21:32:23.064Z,1.80
2019-02-15T21:34:49.773Z,1.80
2019-02-15T21:37:18.161Z,1.80
2019-02-15T21:39:45.857Z,1.80
2019-02-15T21:42:12.655Z,1.80
2019-02-15T21:44:39.378Z,1.90
2019-02-15T21:47:08.196Z,2.00
2019-02-15T21:49:35.176Z,2.00
2019-02-15T21:52:02.459Z,2.00
2019-02-15T21:54:32.176Z,2.00
2019-02-15T21:56:59.044Z,2.00
2019-02-15T21:59:25.768Z,2.00
2019-02-15T22:01:53.655Z,1.90
2019-02-15T22:04:20.496Z,1.90
2019-02-15T22:06:48.071Z,1.90
2019-02-15T22:09:14.801Z,1.90
2019-02-15T22:11:41.636Z,1.90
2019-02-15T22:14:09.198Z,2.00
2019-02-15T22:16:35.936Z,2.00
2019-02-15T22:19:03.597Z,2.20
2019-02-15T22:21:31.262Z,2.20
2019-02-15T22:23:57.909Z,2.10
2019-02-15T22:26:24.745Z,2.30
2019-02-15T22:28:51.482Z,2.30
2019-02-15T22:31:18.940Z,2.30
2019-02-15T22:33:46.499Z,2.30
2019-02-15T22:36:13.345Z,2.20
2019-02-15T22:38:40.185Z,2.40
2019-02-15T22:41:07.846Z,2.40
2019-02-15T22:43:34.692Z,2.40
2019-02-15T22:46:01.535Z,2.40
2019-02-15T22:48:29.094Z,2.30
2019-02-15T22:50:56.551Z,2.30
2019-02-15T22:53:23.403Z,2.20
2019-02-15T22:55:50.132Z,2.30
2019-02-15T22:58:17.629Z,2.30
2019-02-15T23:00:45.254Z,2.30
2019-02-15T23:03:12.916Z,2.30
2019-02-15T23:05:40.354Z,2.30
2019-02-15T23:08:07.836Z,2.40
2019-02-15T23:10:34.573Z,2.40
2019-02-15T23:13:01.423Z,2.30
2019-02-15T23:15:28.256Z,2.40
2019-02-15T23:17:55.695Z,2.40
2019-02-15T23:20:23.171Z,2.30
2019-02-15T23:22:50.014Z,2.30
2019-02-15T23:25:16.782Z,2.30
2019-02-15T23:27:43.494Z,2.30
2019-02-15T23:30:10.444Z,2.30
2019-02-15T23:32:37.284Z,2.40
2019-02-15T23:35:03.982Z,2.40
2019-02-15T23:37:30.972Z,2.40
2019-02-15T23:39:57.816Z,2.40
2019-02-15T23:42:24.660Z,2.40
2019-02-15T23:44:51.599Z,2.40
2019-02-15T23:47:19.057Z,2.40
2019-02-15T23:49:45.902Z,2.30
2019-02-15T23:52:12.743Z,2.30
2019-02-15T23:54:39.386Z,2.40
2019-02-15T23:57:06.120Z,2.40
2019-02-15T23:59:33.066Z,2.40
